This is the latest recevied weather packets stored in our database for station/object DL3MEB-6. If no packets are shown the sender has not sent any weather packets the latest 10 day(s).
| Time | Temp. | Humidity | Pressure | Rain* | Wind** | Luminosity | Snow |
|---|---|---|---|---|---|---|---|
| 1787940979 | 20.56° C | 88% | 1013.7 hPa | 0 mm | - | - | - |
| 1787940069 | 21.11° C | 89% | 1013.3 hPa | 0 mm | - | - | - |
| 1787939163 | 21.11° C | 88% | 1012.6 hPa | 0 mm | - | - | - |
| 1787938258 | 21.67° C | 88% | 1012.8 hPa | 0 mm | - | - | - |
| 1787937356 | 21.67° C | 87% | 1013.1 hPa | 0 mm | - | - | - |
| 1787935541 | 21.67° C | 91% | 1013.1 hPa | 0 mm | - | - | - |
| 1787934636 | 21.11° C | 90% | 1013.1 hPa | 0 mm | - | - | - |
| 1787933756 | 21.11° C | 92% | 1013.1 hPa | 0 mm | - | - | - |
| 1787924759 | 22.78° C | 65% | 1013.5 hPa | 0 mm | - | - | - |
| 1787922044 | 23.33° C | 71% | 1012.8 hPa | 0 mm | - | - | - |
| 1787921144 | 23.89° C | 69% | 1012.9 hPa | 0 mm | - | - | - |
| 1787920232 | 23.89° C | 67% | 1012.3 hPa | 0 mm | - | - | - |
| 1787919321 | 24.44° C | 66% | 1012.4 hPa | 0 mm | - | - | - |
| 1787918419 | 25° C | 65% | 1012.1 hPa | 0 mm | - | - | - |
| 1787916600 | 25° C | 68% | 1011.3 hPa | 0 mm | - | - | - |
| 1787915692 | 25.56° C | 67% | 1011.1 hPa | 0 mm | - | - | - |
| 1787913875 | 26.67° C | 62% | 1010.7 hPa | 0 mm | - | - | - |
| 1787912967 | 28.33° C | 56% | 1008.9 hPa | 0 mm | - | - | - |
| 1787912067 | 28.89° C | 52% | 1007.7 hPa | 0 mm | - | - | - |
| 1787910244 | 26.67° C | 60% | 1007.8 hPa | 0 mm | - | - | - |
| 1787909336 | 26.11° C | 62% | 1007.6 hPa | 0 mm | - | - | - |
| 1787908434 | 25° C | 69% | 1007.3 hPa | 0 mm | - | - | - |
| 1787907525 | 24.44° C | 72% | 1007.4 hPa | 0 mm | - | - | - |
| 1787906616 | 23.89° C | 74% | 1007.6 hPa | 0 mm | - | - | - |
| 1787905713 | 23.33° C | 77% | 1008.3 hPa | 0 mm | - | - | - |
* Rain latest hour (hover to see other rain measurements)
** Current wind speed in m/s (hover to see current wind gust speed)